createdAt,value
2018-12-03T00:02:36.136Z,9.60
2018-12-03T00:05:45.360Z,9.70
2018-12-03T00:08:54.732Z,9.70
2018-12-03T00:12:04.008Z,9.80
2018-12-03T00:15:13.324Z,9.80
2018-12-03T00:18:22.506Z,9.80
2018-12-03T00:21:31.756Z,9.90
2018-12-03T00:24:41.140Z,9.90
2018-12-03T00:27:52.621Z,9.90
2018-12-03T00:31:02.667Z,10.00
2018-12-03T00:34:11.893Z,10.00
2018-12-03T00:37:21.286Z,9.90
2018-12-03T00:40:30.529Z,10.00
2018-12-03T00:43:39.706Z,9.90
2018-12-03T00:46:49.087Z,9.90
2018-12-03T00:49:58.434Z,9.80
2018-12-03T00:53:07.664Z,9.90
2018-12-03T00:59:32.715Z,9.90
2018-12-03T01:02:41.793Z,9.90
2018-12-03T01:05:51.108Z,9.90
2018-12-03T01:09:00.291Z,9.80
2018-12-03T01:12:09.585Z,9.90
2018-12-03T01:15:18.833Z,9.90
2018-12-03T01:18:28.188Z,9.90
2018-12-03T01:21:37.518Z,9.90
2018-12-03T01:24:46.780Z,10.00
2018-12-03T01:27:56.096Z,10.00
2018-12-03T01:31:05.383Z,10.10
2018-12-03T01:34:14.561Z,10.10
2018-12-03T01:37:23.957Z,10.20
2018-12-03T01:40:33.441Z,10.30
2018-12-03T01:43:42.743Z,10.30
2018-12-03T01:46:51.878Z,10.30
2018-12-03T01:50:01.346Z,10.30
2018-12-03T01:53:10.631Z,10.30
2018-12-03T01:56:19.776Z,10.30
2018-12-03T01:59:29.025Z,10.30
2018-12-03T02:02:38.203Z,10.40
2018-12-03T02:05:47.441Z,10.40
2018-12-03T02:08:56.739Z,10.40
2018-12-03T02:12:06.081Z,10.40
2018-12-03T02:15:16.331Z,10.30
2018-12-03T02:18:25.642Z,10.30
2018-12-03T02:21:34.995Z,10.30
2018-12-03T02:24:44.245Z,10.30
2018-12-03T02:27:53.559Z,10.20
2018-12-03T02:31:02.837Z,10.20
2018-12-03T02:34:12.244Z,10.10
2018-12-03T02:37:21.547Z,10.10
2018-12-03T02:40:30.700Z,10.20
2018-12-03T02:43:40.085Z,10.20
2018-12-03T02:46:49.343Z,10.20
2018-12-03T02:49:58.597Z,10.30
2018-12-03T02:53:07.892Z,10.30
2018-12-03T02:56:17.285Z,10.30
2018-12-03T02:59:26.607Z,10.20
2018-12-03T03:02:36.020Z,10.30
2018-12-03T03:05:45.224Z,10.30
2018-12-03T03:08:54.390Z,10.30
2018-12-03T03:12:03.652Z,10.30
2018-12-03T03:15:13.895Z,10.30
2018-12-03T03:18:23.110Z,10.30
2018-12-03T03:21:32.361Z,10.30
2018-12-03T03:24:41.616Z,10.40
2018-12-03T03:27:50.896Z,10.40
2018-12-03T03:31:00.180Z,10.40
2018-12-03T03:34:09.616Z,10.50
2018-12-03T03:37:18.765Z,10.50
2018-12-03T03:40:28.052Z,10.50
2018-12-03T03:43:37.276Z,10.50
2018-12-03T03:46:46.430Z,10.50
2018-12-03T03:49:55.738Z,10.50
2018-12-03T03:53:04.980Z,10.50
2018-12-03T03:56:14.483Z,10.50
2018-12-03T03:59:23.732Z,10.60
2018-12-03T04:02:32.887Z,10.60
2018-12-03T04:05:42.069Z,10.50
2018-12-03T04:08:51.332Z,10.50
2018-12-03T04:12:00.614Z,10.50
2018-12-03T04:15:10.982Z,10.40
2018-12-03T04:18:20.307Z,10.50
2018-12-03T04:21:29.590Z,10.40
2018-12-03T04:24:38.867Z,10.40
2018-12-03T04:27:48.440Z,10.40
2018-12-03T04:30:57.760Z,10.50
2018-12-03T04:34:07.197Z,10.50
2018-12-03T04:37:16.476Z,10.50
2018-12-03T04:40:25.841Z,10.40
2018-12-03T04:43:36.480Z,10.40
2018-12-03T04:46:46.219Z,10.30
2018-12-03T04:49:56.392Z,10.30
2018-12-03T04:53:06.480Z,10.30
2018-12-03T04:56:16.595Z,10.30
2018-12-03T04:59:25.983Z,10.30
2018-12-03T05:02:35.268Z,10.20
2018-12-03T05:05:44.534Z,10.30
2018-12-03T05:08:53.877Z,10.30
2018-12-03T05:12:03.145Z,10.40
2018-12-03T05:15:13.234Z,10.40
2018-12-03T05:18:22.385Z,10.50
2018-12-03T05:21:31.679Z,10.50
2018-12-03T05:24:41.235Z,10.50
2018-12-03T05:27:50.552Z,10.50
2018-12-03T05:30:59.777Z,10.50
2018-12-03T05:34:08.868Z,10.50
2018-12-03T05:37:18.168Z,10.60
2018-12-03T05:40:29.015Z,10.60
2018-12-03T05:43:38.265Z,10.60
2018-12-03T05:46:47.552Z,10.70
2018-12-03T05:49:56.705Z,10.70
2018-12-03T05:53:06.373Z,10.70
2018-12-03T05:56:15.532Z,10.70
2018-12-03T05:59:24.740Z,10.70
2018-12-03T06:02:33.964Z,10.70
2018-12-03T06:05:43.257Z,10.70
2018-12-03T06:08:52.542Z,10.70
2018-12-03T06:12:01.817Z,10.70
2018-12-03T06:15:12.450Z,10.70
2018-12-03T06:18:22.912Z,10.70
2018-12-03T06:21:33.318Z,10.70
2018-12-03T06:24:45.846Z,10.70
2018-12-03T06:27:58.216Z,10.70
2018-12-03T06:31:09.367Z,10.70
2018-12-03T06:34:19.103Z,10.70
2018-12-03T06:37:30.646Z,10.60
2018-12-03T06:40:43.848Z,10.60
2018-12-03T06:43:53.161Z,10.60
2018-12-03T06:47:02.535Z,10.60
2018-12-03T06:50:12.253Z,10.60
2018-12-03T06:53:21.521Z,10.50
2018-12-03T06:56:30.685Z,10.60
2018-12-03T06:59:39.977Z,10.50
2018-12-03T07:02:49.994Z,10.50
2018-12-03T07:05:59.345Z,10.50
2018-12-03T07:09:10.500Z,10.50
2018-12-03T07:12:19.801Z,10.50
2018-12-03T07:15:31.844Z,10.50
2018-12-03T07:18:41.886Z,10.50
2018-12-03T07:21:51.420Z,10.50
2018-12-03T07:25:03.072Z,10.50
2018-12-03T07:28:14.118Z,10.50
2018-12-03T07:31:23.553Z,10.60
2018-12-03T07:34:32.842Z,10.60
2018-12-03T07:37:42.268Z,10.60
2018-12-03T07:40:51.551Z,10.60
2018-12-03T07:44:00.830Z,10.60
2018-12-03T07:47:10.195Z,10.70
2018-12-03T07:50:21.465Z,10.70
2018-12-03T07:53:30.662Z,10.70
2018-12-03T07:56:39.812Z,10.70
2018-12-03T07:59:49.007Z,10.80
2018-12-03T08:02:58.337Z,10.80
2018-12-03T08:06:07.898Z,10.70
2018-12-03T08:09:18.400Z,10.70
2018-12-03T08:12:27.687Z,10.70
2018-12-03T08:15:36.976Z,10.70
2018-12-03T08:18:46.289Z,10.80
2018-12-03T08:21:55.449Z,10.80
2018-12-03T08:25:04.821Z,10.80
2018-12-03T08:28:14.194Z,10.70
2018-12-03T08:31:23.461Z,10.70
2018-12-03T08:34:32.895Z,10.70
2018-12-03T08:37:42.275Z,10.80
2018-12-03T08:40:51.644Z,10.80
2018-12-03T08:44:00.826Z,10.80
2018-12-03T08:47:12.728Z,10.90
2018-12-03T08:50:23.188Z,10.90
2018-12-03T08:53:32.345Z,10.90
2018-12-03T08:56:45.149Z,11.00
2018-12-03T08:59:54.440Z,11.00
2018-12-03T09:03:14.849Z,11.00
2018-12-03T09:06:24.282Z,11.00
2018-12-03T09:09:33.720Z,11.10
2018-12-03T09:12:43.012Z,11.20
2018-12-03T09:15:54.882Z,11.20
2018-12-03T09:19:04.099Z,11.30
2018-12-03T09:22:13.479Z,11.40
2018-12-03T09:25:23.706Z,11.30
2018-12-03T09:28:34.560Z,11.40
2018-12-03T09:31:43.838Z,11.40
2018-12-03T09:34:53.047Z,11.40
2018-12-03T09:38:02.297Z,11.40
2018-12-03T09:41:11.583Z,11.40
2018-12-03T09:44:20.993Z,11.40
2018-12-03T09:47:30.817Z,11.40
2018-12-03T09:50:39.778Z,11.50
2018-12-03T09:53:50.437Z,11.50
2018-12-03T09:56:59.897Z,11.50
2018-12-03T10:00:17.801Z,11.50
2018-12-03T10:03:29.863Z,11.50
2018-12-03T10:06:39.311Z,11.50
2018-12-03T10:09:48.682Z,11.50
2018-12-03T10:13:00.437Z,11.50
2018-12-03T10:16:10.032Z,11.50
2018-12-03T10:19:19.533Z,11.50
2018-12-03T10:22:28.704Z,11.50
2018-12-03T10:25:38.018Z,11.50
2018-12-03T10:28:47.443Z,11.40
2018-12-03T10:31:56.855Z,11.50
2018-12-03T10:35:06.273Z,11.50
2018-12-03T10:38:22.604Z,11.60
2018-12-03T10:41:32.085Z,11.60
2018-12-03T10:44:41.404Z,11.70
2018-12-03T10:47:55.209Z,11.70
2018-12-03T10:51:04.588Z,11.80
2018-12-03T10:54:13.897Z,11.80
2018-12-03T10:57:23.637Z,11.80
2018-12-03T11:00:38.812Z,11.80
2018-12-03T11:03:53.621Z,11.80
2018-12-03T11:07:02.802Z,11.90
2018-12-03T11:10:12.002Z,12.00
2018-12-03T11:13:21.277Z,12.10
2018-12-03T11:16:32.238Z,12.20
2018-12-03T11:19:45.925Z,12.40
2018-12-03T11:22:55.125Z,12.50
2018-12-03T11:26:05.516Z,12.50
2018-12-03T11:29:16.046Z,12.50
2018-12-03T11:32:25.474Z,12.50
2018-12-03T11:35:34.703Z,12.50
2018-12-03T11:38:56.684Z,12.40
2018-12-03T11:42:06.740Z,12.40
2018-12-03T11:45:16.201Z,12.40
2018-12-03T11:48:25.448Z,12.40
2018-12-03T11:51:35.488Z,12.50
2018-12-03T11:54:44.856Z,12.50
2018-12-03T11:57:54.141Z,12.60
2018-12-03T12:01:03.376Z,12.60
2018-12-03T12:04:12.570Z,12.60
2018-12-03T12:07:21.919Z,12.70
2018-12-03T12:10:31.318Z,12.90
2018-12-03T12:13:40.646Z,12.90
2018-12-03T12:16:50.765Z,12.90
2018-12-03T12:20:00.023Z,13.00
2018-12-03T12:23:09.334Z,13.10
2018-12-03T12:26:18.730Z,13.20
2018-12-03T12:29:28.096Z,13.20
2018-12-03T12:32:37.434Z,13.30
2018-12-03T12:35:46.705Z,13.20
2018-12-03T12:38:55.959Z,13.10
2018-12-03T12:42:06.562Z,13.10
2018-12-03T12:45:18.937Z,13.20
2018-12-03T12:48:28.554Z,13.30
2018-12-03T12:51:37.854Z,13.40
2018-12-03T12:54:47.217Z,13.40
2018-12-03T12:57:56.566Z,13.30
2018-12-03T13:01:06.453Z,13.20
2018-12-03T13:04:15.865Z,13.10
2018-12-03T13:07:25.226Z,13.00
2018-12-03T13:10:34.694Z,13.00
2018-12-03T13:13:43.862Z,13.00
2018-12-03T13:16:53.182Z,13.00
2018-12-03T13:20:02.387Z,12.80
2018-12-03T13:23:11.619Z,12.80
2018-12-03T13:26:21.181Z,12.60
2018-12-03T13:29:30.441Z,12.60
2018-12-03T13:32:39.725Z,12.60
2018-12-03T13:35:49.288Z,12.60
2018-12-03T13:38:58.580Z,12.50
2018-12-03T13:42:07.926Z,12.50
2018-12-03T13:45:21.038Z,12.50
2018-12-03T13:48:30.283Z,12.50
2018-12-03T13:51:39.602Z,12.40
2018-12-03T13:54:48.968Z,12.40
2018-12-03T13:57:58.295Z,12.40
2018-12-03T14:01:07.547Z,12.30
2018-12-03T14:04:17.512Z,12.30
2018-12-03T14:07:33.253Z,12.30
2018-12-03T14:10:54.895Z,12.30
2018-12-03T14:14:13.439Z,12.20
2018-12-03T14:17:27.675Z,12.00
2018-12-03T14:20:40.218Z,11.90
2018-12-03T14:23:51.988Z,11.80
2018-12-03T14:27:01.345Z,11.80
2018-12-03T14:30:11.696Z,11.70
2018-12-03T14:33:20.945Z,11.80
2018-12-03T14:36:30.317Z,11.70
2018-12-03T14:39:39.723Z,11.70
2018-12-03T14:42:48.980Z,11.70
2018-12-03T14:45:58.287Z,11.70
2018-12-03T14:49:07.716Z,11.60
2018-12-03T14:52:17.353Z,11.60
2018-12-03T14:55:26.626Z,11.60
2018-12-03T14:58:35.840Z,11.50
2018-12-03T15:01:45.173Z,11.50
2018-12-03T15:04:54.485Z,11.40
2018-12-03T15:08:03.861Z,11.30
2018-12-03T15:11:13.166Z,11.20
2018-12-03T15:14:22.609Z,11.10
2018-12-03T15:17:31.975Z,11.00
2018-12-03T15:20:41.375Z,11.00
2018-12-03T15:23:50.598Z,11.00
2018-12-03T15:26:59.872Z,11.00
2018-12-03T15:30:10.322Z,11.00
2018-12-03T15:33:19.472Z,11.10
2018-12-03T15:39:44.466Z,11.00
2018-12-03T15:42:53.800Z,11.10
2018-12-03T15:46:03.252Z,11.00
2018-12-03T15:49:12.752Z,11.00
2018-12-03T15:52:22.211Z,11.00
2018-12-03T15:55:31.528Z,10.90
2018-12-03T15:58:40.796Z,10.90
2018-12-03T16:01:50.025Z,10.70
2018-12-03T16:04:59.263Z,10.70
2018-12-03T16:08:09.062Z,10.60
2018-12-03T16:11:18.305Z,10.60
2018-12-03T16:14:27.614Z,10.60
2018-12-03T16:17:36.965Z,10.60
2018-12-03T16:20:46.167Z,10.60
2018-12-03T16:23:55.622Z,10.50
2018-12-03T16:27:04.874Z,10.50
2018-12-03T16:30:17.925Z,10.50
2018-12-03T16:33:27.268Z,10.50
2018-12-03T16:36:36.517Z,10.40
2018-12-03T16:39:45.865Z,10.40
2018-12-03T16:42:55.182Z,10.40
2018-12-03T16:46:04.505Z,10.50
2018-12-03T16:49:13.884Z,10.40
2018-12-03T16:52:23.173Z,10.40
2018-12-03T16:55:32.622Z,10.30
2018-12-03T16:58:41.848Z,10.40
2018-12-03T17:01:51.255Z,10.40
2018-12-03T17:05:00.448Z,10.40
2018-12-03T17:08:09.750Z,10.30
2018-12-03T17:11:19.021Z,10.30
2018-12-03T17:14:28.170Z,10.30
2018-12-03T17:17:37.455Z,10.30
2018-12-03T17:21:09.840Z,10.30
2018-12-03T17:24:22.953Z,10.30
2018-12-03T17:27:32.142Z,10.20
2018-12-03T17:30:41.515Z,10.20
2018-12-03T17:33:50.841Z,10.30
2018-12-03T17:37:00.312Z,10.30
2018-12-03T17:40:10.731Z,10.30
2018-12-03T17:43:19.951Z,10.40
2018-12-03T17:46:29.446Z,10.30
2018-12-03T17:49:38.794Z,10.20
2018-12-03T17:52:48.069Z,10.10
2018-12-03T17:55:57.499Z,10.00
2018-12-03T17:59:06.740Z,9.90
2018-12-03T18:02:16.205Z,9.80
2018-12-03T18:05:25.505Z,9.70
2018-12-03T18:08:34.863Z,9.70
2018-12-03T18:11:44.371Z,9.60
2018-12-03T18:14:53.525Z,9.50
2018-12-03T18:18:02.958Z,9.40
2018-12-03T18:21:12.275Z,9.20
2018-12-03T18:24:21.458Z,9.10
2018-12-03T18:27:30.760Z,9.00
2018-12-03T18:30:40.151Z,8.90
2018-12-03T18:33:49.456Z,8.90
2018-12-03T18:36:58.643Z,8.90
2018-12-03T18:40:09.507Z,8.90
2018-12-03T18:43:18.775Z,8.90
2018-12-03T18:46:28.068Z,8.90
2018-12-03T18:49:40.272Z,8.80
2018-12-03T18:52:49.599Z,8.70
2018-12-03T18:55:58.785Z,8.70
2018-12-03T18:59:08.075Z,8.70
2018-12-03T19:02:17.240Z,8.70
2018-12-03T19:05:26.519Z,8.70
2018-12-03T19:08:35.749Z,8.70
2018-12-03T19:11:45.128Z,8.60
2018-12-03T19:14:54.479Z,8.60
2018-12-03T19:18:03.696Z,8.50
2018-12-03T19:21:12.868Z,8.50
2018-12-03T19:24:22.166Z,8.50
2018-12-03T19:27:31.375Z,8.50
2018-12-03T19:30:40.591Z,8.50
2018-12-03T19:33:50.009Z,8.40
2018-12-03T19:36:59.258Z,8.40
2018-12-03T19:40:08.571Z,8.30
2018-12-03T19:43:17.920Z,8.20
2018-12-03T19:46:27.159Z,8.20
2018-12-03T19:49:36.366Z,8.20
2018-12-03T19:52:47.791Z,8.30
2018-12-03T19:55:57.036Z,8.30
2018-12-03T19:59:06.373Z,8.30
2018-12-03T20:02:15.531Z,8.30
2018-12-03T20:05:24.730Z,8.30
2018-12-03T20:08:33.904Z,8.30
2018-12-03T20:11:43.246Z,8.30
2018-12-03T20:14:52.645Z,8.30
2018-12-03T20:18:02.065Z,8.30
2018-12-03T20:21:15.593Z,8.30
2018-12-03T20:24:26.376Z,8.30
2018-12-03T20:27:42.925Z,8.30
2018-12-03T20:31:04.413Z,8.30
2018-12-03T20:34:23.779Z,8.30
2018-12-03T20:38:09.625Z,8.30
2018-12-03T20:41:25.533Z,8.30
2018-12-03T20:44:39.320Z,8.30
2018-12-03T20:47:50.960Z,8.30
2018-12-03T20:51:12.453Z,8.30
2018-12-03T20:54:21.620Z,8.20
2018-12-03T20:57:31.007Z,8.30
2018-12-03T21:00:41.282Z,8.20
2018-12-03T21:03:50.785Z,8.20
2018-12-03T21:07:00.016Z,8.20
2018-12-03T21:10:09.264Z,8.20
2018-12-03T21:13:19.425Z,8.20
2018-12-03T21:16:28.699Z,8.20
2018-12-03T21:19:38.307Z,8.30
2018-12-03T21:22:47.679Z,8.30
2018-12-03T21:25:57.125Z,8.30
2018-12-03T21:29:06.312Z,8.30
2018-12-03T21:32:15.665Z,8.30
2018-12-03T21:35:25.104Z,8.20
2018-12-03T21:38:34.572Z,8.20
2018-12-03T21:41:43.993Z,8.20
2018-12-03T21:44:53.393Z,8.10
2018-12-03T21:48:02.685Z,8.10
2018-12-03T21:51:11.956Z,8.10
2018-12-03T21:54:21.412Z,8.10
2018-12-03T21:57:30.752Z,8.10
2018-12-03T22:00:40.232Z,8.10
2018-12-03T22:03:49.503Z,8.10
2018-12-03T22:07:05.531Z,8.10
2018-12-03T22:10:14.977Z,8.00
2018-12-03T22:13:24.292Z,8.10
2018-12-03T22:16:33.575Z,8.00
2018-12-03T22:19:42.821Z,8.00
2018-12-03T22:22:52.018Z,8.00
2018-12-03T22:26:01.244Z,8.00
2018-12-03T22:29:10.593Z,8.00
2018-12-03T22:32:20.044Z,8.00
2018-12-03T22:35:29.796Z,7.90
2018-12-03T22:38:39.184Z,8.00
2018-12-03T22:41:48.644Z,8.00
2018-12-03T22:44:58.073Z,8.00
2018-12-03T22:48:13.950Z,8.00
2018-12-03T22:51:23.178Z,8.10
2018-12-03T22:54:32.559Z,8.10
2018-12-03T22:57:41.801Z,8.20
2018-12-03T23:00:58.983Z,8.20
2018-12-03T23:04:08.452Z,8.30
2018-12-03T23:07:18.385Z,8.40
2018-12-03T23:10:27.711Z,8.40
2018-12-03T23:13:38.214Z,8.40
2018-12-03T23:16:47.721Z,8.40
2018-12-03T23:19:56.951Z,8.40
2018-12-03T23:23:06.204Z,8.40
2018-12-03T23:26:15.497Z,8.50
2018-12-03T23:29:24.832Z,8.50
2018-12-03T23:32:34.227Z,8.40
2018-12-03T23:35:43.553Z,8.40
2018-12-03T23:38:52.904Z,8.40
2018-12-03T23:42:02.258Z,8.50
2018-12-03T23:45:11.614Z,8.40
2018-12-03T23:48:21.096Z,8.40
2018-12-03T23:51:30.310Z,8.40
2018-12-03T23:54:41.589Z,8.40
2018-12-03T23:57:50.994Z,8.50
